Time,TemperatureF,DewpointF,PressureIn,WindDirection,WindDirectionDegrees,WindSpeedMPH,WindSpeedGustMPH,Humidity,HourlyPrecipIn,Conditions,Clouds,dailyrainin,SoftwareType,DateUTC
2013-03-20 00:00:00,28.1,18.2,30.09,West,263,0.0,0.0,66,0.00,CLR,,0.00,WeatherDisplay:10.37,2013-03-20 05:00:00,
2013-03-20 00:05:00,27.9,18.4,30.09,West,263,0.0,0.0,67,0.00,CLR,,0.00,WeatherDisplay:10.37,2013-03-20 05:05:00,
2013-03-20 00:10:00,27.8,18.6,30.09,West,263,0.0,0.0,68,0.00,CLR,,0.00,WeatherDisplay:10.37,2013-03-20 05:10:00,
2013-03-20 00:15:00,27.6,18.4,30.09,West,263,0.2,1.1,68,0.00,CLR,,0.00,WeatherDisplay:10.37,2013-03-20 05:15:00,
2013-03-20 00:20:00,27.5,18.7,30.08,West,263,0.0,0.0,69,0.00,CLR,,0.00,WeatherDisplay:10.37,2013-03-20 05:20:00,
2013-03-20 00:25:00,27.3,18.5,30.09,West,263,0.0,0.0,69,0.00,CLR,,0.00,WeatherDisplay:10.37,2013-03-20 05:25:00,
2013-03-20 00:30:00,27.2,18.0,30.09,West,263,0.0,0.0,68,0.00,CLR,,0.00,WeatherDisplay:10.37,2013-03-20 05:30:00,
2013-03-20 00:35:00,27.2,18.0,30.09,West,263,0.0,0.0,68,0.00,CLR,,0.00,WeatherDisplay:10.37,2013-03-20 05:35:00,
2013-03-20 00:40:00,27.0,18.2,30.08,West,263,0.0,0.0,69,0.00,CLR,,0.00,WeatherDisplay:10.37,2013-03-20 05:40:00,
2013-03-20 00:45:00,27.0,18.2,30.08,West,263,0.5,1.5,69,0.00,CLR,,0.00,WeatherDisplay:10.37,2013-03-20 05:45:00,
2013-03-20 00:50:00,27.0,18.2,30.08,West,263,0.0,0.0,69,0.00,CLR,,0.00,WeatherDisplay:10.37,2013-03-20 05:50:00,
2013-03-20 00:55:00,26.7,17.9,30.08,West,262,1.9,4.6,69,0.00,CLR,,0.00,WeatherDisplay:10.37,2013-03-20 05:55:00,
2013-03-20 01:00:00,26.7,17.6,30.08,West,262,0.0,0.0,68,0.00,CLR,,0.00,WeatherDisplay:10.37,2013-03-20 06:00:00,
2013-03-20 01:05:00,26.9,17.4,30.08,West,262,0.0,0.0,67,0.00,CLR,,0.00,WeatherDisplay:10.37,2013-03-20 06:05:00,
2013-03-20 01:10:00,27.0,16.8,30.08,West,265,6.9,8.1,65,0.00,CLR,,0.00,WeatherDisplay:10.37,2013-03-20 06:10:00,
2013-03-20 01:15:00,27.9,16.6,30.07,WNW,290,0.0,1.1,62,0.00,CLR,,0.00,WeatherDisplay:10.37,2013-03-20 06:15:00,
2013-03-20 01:20:00,28.4,16.3,30.07,WNW,290,0.0,0.0,60,0.00,CLR,,0.00,WeatherDisplay:10.37,2013-03-20 06:20:00,
2013-03-20 01:25:00,28.4,16.7,30.07,WNW,290,0.0,0.0,61,0.00,CLR,,0.00,WeatherDisplay:10.37,2013-03-20 06:25:00,
2013-03-20 01:30:00,28.1,16.7,30.07,WNW,290,0.0,0.0,62,0.00,CLR,,0.00,WeatherDisplay:10.37,2013-03-20 06:30:00,
2013-03-20 01:35:00,27.8,16.5,30.07,WNW,290,0.0,0.0,62,0.00,CLR,,0.00,WeatherDisplay:10.37,2013-03-20 06:35:00,
2013-03-20 01:40:00,27.5,16.9,30.07,WNW,290,0.6,0.0,64,0.00,CLR,,0.00,WeatherDisplay:10.37,2013-03-20 06:40:00,
2013-03-20 01:45:00,27.3,17.1,30.08,WNW,290,0.0,0.0,65,0.00,CLR,,0.00,WeatherDisplay:10.37,2013-03-20 06:45:00,
2013-03-20 01:50:00,27.0,16.8,30.08,WNW,290,0.2,0.0,65,0.00,CLR,,0.00,WeatherDisplay:10.37,2013-03-20 06:50:00,
2013-03-20 01:55:00,26.7,17.2,30.08,WNW,290,1.3,3.0,67,0.00,CLR,,0.00,WeatherDisplay:10.37,2013-03-20 06:55:00,
2013-03-20 02:00:00,26.4,16.9,30.08,WNW,291,2.9,3.5,67,0.00,CLR,,0.00,WeatherDisplay:10.37,2013-03-20 07:00:00,
2013-03-20 02:05:00,26.4,16.6,30.07,West,278,0.6,1.1,66,0.00,CLR,,0.00,WeatherDisplay:10.37,2013-03-20 07:05:00,
2013-03-20 02:10:00,26.9,16.3,30.07,West,269,0.6,3.0,64,0.00,CLR,,0.00,WeatherDisplay:10.37,2013-03-20 07:10:00,
2013-03-20 02:15:00,27.2,16.3,30.07,West,269,0.9,4.6,63,0.00,CLR,,0.00,WeatherDisplay:10.37,2013-03-20 07:15:00,
2013-03-20 02:20:00,27.5,16.5,30.07,West,270,0.0,1.1,63,0.00,CLR,,0.00,WeatherDisplay:10.37,2013-03-20 07:20:00,
2013-03-20 02:25:00,27.3,16.4,30.07,West,270,0.3,0.0,63,0.00,CLR,,0.00,WeatherDisplay:10.37,2013-03-20 07:25:00,
2013-03-20 02:30:00,27.5,16.2,30.07,West,269,5.0,5.0,62,0.00,CLR,,0.00,WeatherDisplay:10.37,2013-03-20 07:30:00,
2013-03-20 02:35:00,27.6,16.3,30.07,West,269,1.8,0.0,62,0.00,CLR,,0.00,WeatherDisplay:10.37,2013-03-20 07:35:00,
2013-03-20 02:40:00,27.6,16.3,30.07,West,269,0.2,0.0,62,0.00,CLR,,0.00,WeatherDisplay:10.37,2013-03-20 07:40:00,
2013-03-20 02:45:00,27.5,16.2,30.07,West,269,3.0,4.6,62,0.00,CLR,,0.00,WeatherDisplay:10.37,2013-03-20 07:45:00,
2013-03-20 02:50:00,27.5,16.5,30.07,West,270,5.0,5.0,63,0.00,CLR,,0.00,WeatherDisplay:10.37,2013-03-20 07:50:00,
2013-03-20 02:55:00,27.6,16.6,30.06,West,271,6.0,8.1,63,0.00,CLR,,0.00,WeatherDisplay:10.37,2013-03-20 07:55:00,
2013-03-20 03:00:00,27.8,16.8,30.06,West,263,3.6,4.6,63,0.00,CLR,,0.00,WeatherDisplay:10.37,2013-03-20 08:00:00,
2013-03-20 03:05:00,27.8,16.8,30.06,West,263,1.5,3.5,63,0.00,CLR,,0.00,WeatherDisplay:10.37,2013-03-20 08:05:00,
2013-03-20 03:10:00,27.8,16.8,30.06,West,266,2.7,4.6,63,0.00,CLR,,0.00,WeatherDisplay:10.37,2013-03-20 08:10:00,
2013-03-20 03:15:00,27.6,17.0,30.06,West,265,4.9,6.0,64,0.00,CLR,,0.00,WeatherDisplay:10.37,2013-03-20 08:15:00,
2013-03-20 03:21:00,27.5,16.9,30.06,SW,233,3.8,9.2,64,0.00,CLR,,0.00,WeatherDisplay:10.37,2013-03-20 08:21:00,
2013-03-20 03:26:00,27.5,17.3,30.06,West,265,3.6,5.8,65,0.00,CLR,,0.00,WeatherDisplay:10.37,2013-03-20 08:26:00,
2013-03-20 03:31:00,27.5,17.3,30.06,West,263,6.9,9.2,65,0.00,CLR,,0.00,WeatherDisplay:10.37,2013-03-20 08:31:00,
2013-03-20 03:36:00,27.3,17.4,30.06,West,259,4.6,4.6,66,0.00,CLR,,0.00,WeatherDisplay:10.37,2013-03-20 08:36:00,
2013-03-20 03:41:00,27.3,17.4,30.06,West,280,7.5,9.2,66,0.00,CLR,,0.00,WeatherDisplay:10.37,2013-03-20 08:41:00,
2013-03-20 03:46:00,27.2,17.3,30.05,West,265,5.7,9.2,66,0.00,CLR,,0.00,WeatherDisplay:10.37,2013-03-20 08:46:00,
2013-03-20 03:51:00,27.0,17.5,30.05,West,265,5.6,8.1,67,0.00,CLR,,0.00,WeatherDisplay:10.37,2013-03-20 08:51:00,
2013-03-20 03:56:00,26.9,17.4,30.05,WNW,292,9.4,10.4,67,0.00,CLR,,0.00,WeatherDisplay:10.37,2013-03-20 08:56:00,
2013-03-20 04:01:00,26.7,17.6,30.05,WNW,284,5.3,5.8,68,0.00,CLR,,0.00,WeatherDisplay:10.37,2013-03-20 09:01:00,
2013-03-20 04:06:00,26.6,17.8,30.05,West,279,3.9,4.6,69,0.00,CLR,,0.00,WeatherDisplay:10.37,2013-03-20 09:06:00,
2013-03-20 04:11:00,26.4,17.6,30.05,WSW,255,0.8,1.1,69,0.00,CLR,,0.00,WeatherDisplay:10.37,2013-03-20 09:11:00,
2013-03-20 04:16:00,26.3,17.8,30.05,WSW,242,3.2,5.8,70,0.00,CLR,,0.00,WeatherDisplay:10.37,2013-03-20 09:16:00,
2013-03-20 04:21:00,26.3,17.8,30.05,WSW,250,6.7,8.1,70,0.00,CLR,,0.00,WeatherDisplay:10.37,2013-03-20 09:21:00,
2013-03-20 04:26:00,26.3,18.2,30.05,WNW,284,4.7,8.1,71,0.00,CLR,,0.00,WeatherDisplay:10.37,2013-03-20 09:26:00,
2013-03-20 04:31:00,26.4,17.9,30.05,West,277,5.3,8.1,70,0.00,CLR,,0.00,WeatherDisplay:10.37,2013-03-20 09:31:00,
2013-03-20 04:36:00,26.4,17.9,30.05,WNW,296,3.1,4.6,70,0.00,CLR,,0.00,WeatherDisplay:10.37,2013-03-20 09:36:00,
2013-03-20 04:41:00,26.3,18.2,30.05,WNW,299,3.0,5.8,71,0.00,CLR,,0.00,WeatherDisplay:10.37,2013-03-20 09:41:00,
2013-03-20 04:46:00,26.1,18.0,30.05,West,279,5.7,5.8,71,0.00,CLR,,0.00,WeatherDisplay:10.37,2013-03-20 09:46:00,
2013-03-20 04:51:00,26.1,18.3,30.05,West,273,5.3,8.1,72,0.00,SCT,,0.00,WeatherDisplay:10.37,2013-03-20 09:51:00,
2013-03-20 04:56:00,26.0,18.2,30.05,West,271,8.6,13.8,72,0.00,SCT,,0.00,WeatherDisplay:10.37,2013-03-20 09:56:00,
2013-03-20 05:01:00,26.0,18.2,30.05,WNW,286,4.2,6.0,72,0.00,SCT,,0.00,WeatherDisplay:10.37,2013-03-20 10:01:00,
2013-03-20 05:07:00,26.0,18.2,30.05,WNW,289,4.4,4.6,72,0.00,SCT,,0.00,WeatherDisplay:10.37,2013-03-20 10:07:00,
2013-03-20 05:12:00,25.8,18.0,30.05,WSW,252,5.4,9.2,72,0.00,SCT,,0.00,WeatherDisplay:10.37,2013-03-20 10:12:00,
2013-03-20 05:17:00,25.8,18.0,30.06,WSW,244,8.5,8.5,72,0.00,SCT,,0.00,WeatherDisplay:10.37,2013-03-20 10:17:00,
2013-03-20 05:22:00,25.8,18.0,30.05,WSW,248,8.6,9.2,72,0.00,SCT,,0.00,WeatherDisplay:10.37,2013-03-20 10:22:00,
2013-03-20 05:27:00,25.8,18.0,30.06,WNW,294,7.1,8.1,72,0.00,SCT,,0.00,WeatherDisplay:10.37,2013-03-20 10:27:00,
2013-03-20 05:32:00,25.7,17.9,30.06,WNW,294,12.7,16.1,72,0.00,CLR,,0.00,WeatherDisplay:10.37,2013-03-20 10:32:00,
2013-03-20 05:37:00,25.7,17.6,30.06,WNW,290,7.3,15.0,71,0.00,CLR,,0.00,WeatherDisplay:10.37,2013-03-20 10:37:00,
2013-03-20 05:42:00,25.6,17.8,30.06,WSW,242,5.9,9.0,72,0.00,CLR,,0.00,WeatherDisplay:10.37,2013-03-20 10:42:00,
2013-03-20 05:47:00,25.6,17.8,30.06,West,263,9.6,9.6,72,0.00,CLR,,0.00,WeatherDisplay:10.37,2013-03-20 10:47:00,
2013-03-20 05:52:00,25.6,17.8,30.06,West,263,10.9,10.9,72,0.00,SCT,,0.00,WeatherDisplay:10.37,2013-03-20 10:52:00,
2013-03-20 05:57:00,25.6,18.1,30.06,West,276,5.6,10.4,73,0.00,SCT,,0.00,WeatherDisplay:10.37,2013-03-20 10:57:00,
2013-03-20 06:02:00,25.6,17.8,30.06,West,263,6.3,10.4,72,0.00,SCT,,0.00,WeatherDisplay:10.37,2013-03-20 11:02:00,
2013-03-20 06:07:00,25.4,17.6,30.06,West,279,7.2,7.2,72,0.00,SCT,,0.00,WeatherDisplay:10.37,2013-03-20 11:07:00,
2013-03-20 06:12:00,25.4,17.6,30.06,WSW,250,6.2,8.1,72,0.00,CLR,,0.00,WeatherDisplay:10.37,2013-03-20 11:12:00,
2013-03-20 06:18:00,25.3,17.5,30.07,WSW,237,12.3,15.0,72,0.00,CLR,,0.00,WeatherDisplay:10.37,2013-03-20 11:18:00,
2013-03-20 06:23:00,25.3,17.2,30.07,WSW,240,6.8,8.1,71,0.00,CLR,,0.00,WeatherDisplay:10.37,2013-03-20 11:23:00,
2013-03-20 06:28:00,25.0,16.3,30.07,West,263,14.8,20.7,69,0.00,CLR,,0.00,WeatherDisplay:10.37,2013-03-20 11:28:00,
2013-03-20 06:33:00,25.0,15.9,30.07,West,277,5.6,5.8,68,0.00,CLR,,0.00,WeatherDisplay:10.37,2013-03-20 11:33:00,
2013-03-20 06:38:00,24.8,16.7,30.07,WSW,258,4.8,8.1,71,0.00,CLR,,0.00,WeatherDisplay:10.37,2013-03-20 11:38:00,
2013-03-20 06:43:00,24.7,16.0,30.07,West,278,13.0,15.0,69,0.00,CLR,,0.00,WeatherDisplay:10.37,2013-03-20 11:43:00,
2013-03-20 06:48:00,24.4,15.7,30.07,WNW,286,7.3,11.5,69,0.00,CLR,,0.00,WeatherDisplay:10.37,2013-03-20 11:48:00,
2013-03-20 06:53:00,24.4,16.0,30.08,WNW,287,7.0,8.1,70,0.00,CLR,,0.00,WeatherDisplay:10.37,2013-03-20 11:53:00,
2013-03-20 06:58:00,24.2,16.1,30.08,West,263,5.3,8.1,71,0.00,CLR,,0.00,WeatherDisplay:10.37,2013-03-20 11:58:00,
2013-03-20 07:03:00,24.2,16.5,30.08,NNW,333,6.8,6.8,72,0.00,CLR,,0.00,WeatherDisplay:10.37,2013-03-20 12:03:00,
2013-03-20 07:08:00,23.9,16.2,30.08,West,272,9.0,16.1,72,0.00,CLR,,0.00,WeatherDisplay:10.37,2013-03-20 12:08:00,
2013-03-20 07:13:00,23.6,15.6,30.08,West,261,9.0,10.4,71,0.00,CLR,,0.00,WeatherDisplay:10.37,2013-03-20 12:13:00,
2013-03-20 07:18:00,23.2,14.9,30.08,NW,311,9.9,18.0,70,0.00,CLR,,0.00,WeatherDisplay:10.37,2013-03-20 12:18:00,
2013-03-20 07:23:00,22.9,14.2,30.09,West,269,6.5,9.2,69,0.00,CLR,,0.00,WeatherDisplay:10.37,2013-03-20 12:23:00,
2013-03-20 07:28:00,22.7,14.4,30.09,West,275,7.2,8.1,70,0.00,CLR,,0.00,WeatherDisplay:10.37,2013-03-20 12:28:00,
2013-03-20 07:33:00,22.4,13.8,30.09,WNW,288,7.8,10.4,69,0.00,CLR,,0.00,WeatherDisplay:10.37,2013-03-20 12:33:00,
2013-03-20 07:38:00,21.9,11.6,30.10,WSW,244,16.1,18.4,64,0.00,CLR,,0.00,WeatherDisplay:10.37,2013-03-20 12:38:00,
2013-03-20 07:43:00,21.3,10.3,30.10,WNW,290,16.5,19.6,62,0.00,CLR,,0.00,WeatherDisplay:10.37,2013-03-20 12:43:00,
2013-03-20 07:48:00,21.0,10.0,30.10,WSW,257,11.7,19.6,62,0.00,CLR,,0.00,WeatherDisplay:10.37,2013-03-20 12:48:00,
2013-03-20 07:53:00,21.0,10.4,30.10,WNW,301,7.6,10.4,63,0.00,CLR,,0.00,WeatherDisplay:10.37,2013-03-20 12:53:00,
2013-03-20 07:58:00,20.8,10.2,30.10,WNW,282,9.7,10.4,63,0.00,CLR,,0.00,WeatherDisplay:10.37,2013-03-20 12:58:00,
2013-03-20 08:03:00,20.6,10.0,30.11,WNW,296,6.9,13.8,63,0.00,CLR,,0.00,WeatherDisplay:10.37,2013-03-20 13:03:00,
2013-03-20 08:08:00,20.6,9.3,30.11,West,264,16.7,23.0,61,0.00,CLR,,0.00,WeatherDisplay:10.37,2013-03-20 13:08:00,
2013-03-20 08:13:00,20.5,9.5,30.11,West,269,6.6,10.4,62,0.00,SCT,,0.00,WeatherDisplay:10.37,2013-03-20 13:13:00,
2013-03-20 08:18:00,20.3,9.3,30.11,West,270,18.1,18.4,62,0.00,SCT,,0.00,WeatherDisplay:10.37,2013-03-20 13:18:00,
2013-03-20 08:23:00,20.3,9.0,30.11,NW,311,18.9,18.9,61,0.00,SCT,,0.00,WeatherDisplay:10.37,2013-03-20 13:23:00,
2013-03-20 08:28:00,20.2,7.8,30.11,West,281,22.5,23.0,58,0.00,SCT,,0.00,WeatherDisplay:10.37,2013-03-20 13:28:00,
2013-03-20 08:33:00,20.2,7.4,30.11,WSW,245,7.9,10.4,57,0.00,SCT,,0.00,WeatherDisplay:10.37,2013-03-20 13:33:00,
2013-03-20 08:38:00,20.2,7.0,30.12,WNW,291,22.1,22.1,56,0.00,SCT,,0.00,WeatherDisplay:10.37,2013-03-20 13:38:00,
2013-03-20 08:43:00,20.2,7.4,30.12,WSW,254,12.9,15.0,57,0.00,SCT,,0.00,WeatherDisplay:10.37,2013-03-20 13:43:00,
2013-03-20 08:48:00,20.5,7.7,30.11,NW,304,7.2,8.1,57,0.00,SCT,,0.00,WeatherDisplay:10.37,2013-03-20 13:48:00,
2013-03-20 08:53:00,20.6,7.4,30.12,West,275,14.2,18.4,56,0.00,CLR,,0.00,WeatherDisplay:10.37,2013-03-20 13:53:00,
2013-03-20 08:58:00,20.5,7.3,30.12,SW,227,16.4,20.7,56,0.00,CLR,,0.00,WeatherDisplay:10.37,2013-03-20 13:58:00,
2013-03-20 09:03:00,20.6,7.8,30.12,WNW,289,7.3,10.4,57,0.00,CLR,,0.00,WeatherDisplay:10.37,2013-03-20 14:03:00,
2013-03-20 09:08:00,20.5,7.3,30.12,West,263,17.0,17.0,56,0.00,CLR,,0.00,WeatherDisplay:10.37,2013-03-20 14:08:00,
2013-03-20 09:13:00,20.6,7.4,30.12,WNW,286,12.7,25.3,56,0.00,CLR,,0.00,WeatherDisplay:10.37,2013-03-20 14:13:00,
2013-03-20 09:18:00,20.8,7.6,30.12,West,279,11.7,15.0,56,0.00,CLR,,0.00,WeatherDisplay:10.37,2013-03-20 14:18:00,
2013-03-20 09:23:00,20.6,6.6,30.12,SW,232,13.3,13.3,54,0.00,CLR,,0.00,WeatherDisplay:10.37,2013-03-20 14:23:00,
2013-03-20 09:28:00,20.8,6.7,30.12,West,277,11.2,11.2,54,0.00,CLR,,0.00,WeatherDisplay:10.37,2013-03-20 14:28:00,
2013-03-20 09:34:00,21.0,6.5,30.12,NNW,337,6.3,11.5,53,0.00,CLR,,0.00,WeatherDisplay:10.37,2013-03-20 14:34:00,
2013-03-20 09:39:00,21.3,7.2,30.12,WSW,250,4.0,8.1,54,0.00,CLR,,0.00,WeatherDisplay:10.37,2013-03-20 14:39:00,
2013-03-20 09:44:00,21.4,6.5,30.12,West,274,8.7,15.0,52,0.00,CLR,,0.00,WeatherDisplay:10.37,2013-03-20 14:44:00,
2013-03-20 09:49:00,21.4,6.9,30.11,West,259,10.7,13.5,53,0.00,CLR,,0.00,WeatherDisplay:10.37,2013-03-20 14:49:00,
2013-03-20 09:54:00,21.6,6.7,30.11,WNW,288,10.9,10.9,52,0.00,CLR,,0.00,WeatherDisplay:10.37,2013-03-20 14:54:00,
2013-03-20 09:59:00,21.9,7.4,30.11,West,280,16.9,16.9,53,0.00,CLR,,0.00,WeatherDisplay:10.37,2013-03-20 14:59:00,
2013-03-20 10:04:00,21.8,6.8,30.11,West,281,14.2,19.6,52,0.00,CLR,,0.00,WeatherDisplay:10.37,2013-03-20 15:04:00,
2013-03-20 10:09:00,22.2,7.6,30.12,NW,316,14.7,16.1,53,0.00,CLR,,0.00,WeatherDisplay:10.37,2013-03-20 15:09:00,
2013-03-20 10:14:00,22.4,5.6,30.12,WNW,286,11.9,18.4,48,0.00,CLR,,0.00,WeatherDisplay:10.37,2013-03-20 15:14:00,
2013-03-20 10:19:00,22.5,6.2,30.12,West,268,17.3,20.7,49,0.00,CLR,,0.00,WeatherDisplay:10.37,2013-03-20 15:19:00,
2013-03-20 10:24:00,22.5,6.6,30.12,West,261,18.0,18.0,50,0.00,CLR,,0.00,WeatherDisplay:10.37,2013-03-20 15:24:00,
2013-03-20 10:29:00,22.2,6.4,30.12,SW,227,15.3,19.6,50,0.00,CLR,,0.00,WeatherDisplay:10.37,2013-03-20 15:29:00,
2013-03-20 10:34:00,22.4,7.0,30.12,WSW,251,23.2,23.2,51,0.00,CLR,,0.00,WeatherDisplay:10.37,2013-03-20 15:34:00,
2013-03-20 10:39:00,22.7,6.8,30.12,West,267,11.0,13.8,50,0.00,CLR,,0.00,WeatherDisplay:10.37,2013-03-20 15:39:00,
2013-03-20 10:44:00,23.3,6.9,30.12,West,271,17.9,17.9,49,0.00,CLR,,0.00,WeatherDisplay:10.37,2013-03-20 15:44:00,
2013-03-20 10:49:00,23.5,6.2,30.12,SW,215,11.8,16.1,47,0.00,CLR,,0.00,WeatherDisplay:10.37,2013-03-20 15:49:00,
2013-03-20 10:54:00,23.6,6.8,30.12,West,269,23.5,25.3,48,0.00,CLR,,0.00,WeatherDisplay:10.37,2013-03-20 15:54:00,
2013-03-20 10:59:00,23.6,6.3,30.12,West,259,21.1,24.2,47,0.00,CLR,,0.00,WeatherDisplay:10.37,2013-03-20 15:59:00,
2013-03-20 11:04:00,23.3,5.5,30.12,West,277,10.5,19.6,46,0.00,CLR,,0.00,WeatherDisplay:10.37,2013-03-20 16:04:00,
2013-03-20 11:09:00,23.6,6.8,30.12,WSW,238,20.1,22.5,48,0.00,CLR,,0.00,WeatherDisplay:10.37,2013-03-20 16:09:00,
2013-03-20 11:14:00,23.8,6.0,30.12,WSW,238,10.1,16.5,46,0.00,CLR,,0.00,WeatherDisplay:10.37,2013-03-20 16:14:00,
2013-03-20 11:19:00,24.1,5.8,30.12,WNW,290,17.6,19.6,45,0.00,CLR,,0.00,WeatherDisplay:10.37,2013-03-20 16:19:00,
2013-03-20 11:24:00,24.2,5.4,30.12,WSW,243,30.3,38.0,44,0.00,CLR,,0.00,WeatherDisplay:10.37,2013-03-20 16:24:00,
2013-03-20 11:29:00,24.1,4.8,30.12,WSW,247,30.5,30.5,43,0.00,CLR,,0.00,WeatherDisplay:10.37,2013-03-20 16:29:00,
2013-03-20 11:34:00,24.1,4.8,30.12,West,273,24.5,25.3,43,0.00,CLR,,0.00,WeatherDisplay:10.37,2013-03-20 16:34:00,
2013-03-20 11:39:00,24.4,6.1,30.12,West,262,18.6,20.7,45,0.00,CLR,,0.00,WeatherDisplay:10.37,2013-03-20 16:39:00,
2013-03-20 11:44:00,24.8,6.9,30.12,West,266,20.4,20.4,46,0.00,CLR,,0.00,WeatherDisplay:10.37,2013-03-20 16:44:00,
2013-03-20 11:49:00,25.1,6.7,30.12,West,278,13.4,20.7,45,0.00,CLR,,0.00,WeatherDisplay:10.37,2013-03-20 16:49:00,
2013-03-20 11:54:00,25.0,6.6,30.11,WSW,239,15.0,25.3,45,0.00,CLR,,0.00,WeatherDisplay:10.37,2013-03-20 16:54:00,
2013-03-20 11:59:00,25.4,7.9,30.11,SW,234,17.1,18.0,47,0.00,CLR,,0.00,WeatherDisplay:10.37,2013-03-20 16:59:00,
2013-03-20 12:04:00,25.4,7.5,30.12,West,261,13.8,25.5,46,0.00,CLR,,0.00,WeatherDisplay:10.37,2013-03-20 17:04:00,
2013-03-20 12:09:00,25.4,7.5,30.11,West,261,15.0,19.6,46,0.00,CLR,,0.00,WeatherDisplay:10.37,2013-03-20 17:09:00,
2013-03-20 12:14:00,26.0,8.5,30.11,WSW,247,12.7,15.0,47,0.00,CLR,,0.00,WeatherDisplay:10.37,2013-03-20 17:14:00,
2013-03-20 12:19:00,26.1,9.1,30.11,WSW,238,19.5,27.0,48,0.00,CLR,,0.00,WeatherDisplay:10.37,2013-03-20 17:19:00,
2013-03-20 12:24:00,25.8,8.3,30.11,WSW,243,13.0,18.4,47,0.00,CLR,,0.00,WeatherDisplay:10.37,2013-03-20 17:24:00,
2013-03-20 12:29:00,25.8,7.4,30.11,West,265,20.4,27.0,45,0.00,CLR,,0.00,WeatherDisplay:10.37,2013-03-20 17:29:00,
2013-03-20 12:34:00,25.8,8.3,30.11,SW,222,6.8,16.5,47,0.00,CLR,,0.00,WeatherDisplay:10.37,2013-03-20 17:34:00,
2013-03-20 12:39:00,25.8,7.4,30.10,West,272,10.8,23.0,45,0.00,CLR,,0.00,WeatherDisplay:10.37,2013-03-20 17:39:00,
2013-03-20 12:44:00,26.1,7.6,30.10,West,281,10.8,18.4,45,0.00,CLR,,0.00,WeatherDisplay:10.37,2013-03-20 17:44:00,
2013-03-20 12:49:00,26.1,8.1,30.10,West,266,17.3,24.2,46,0.00,CLR,,0.00,WeatherDisplay:10.37,2013-03-20 17:49:00,
2013-03-20 12:54:00,25.8,6.9,30.10,NW,325,17.8,31.1,44,0.00,CLR,,0.00,WeatherDisplay:10.37,2013-03-20 17:54:00,
2013-03-20 12:59:00,26.0,6.5,30.10,WSW,258,24.3,24.3,43,0.00,CLR,,0.00,WeatherDisplay:10.37,2013-03-20 17:59:00,
2013-03-20 13:04:00,25.7,6.3,30.10,West,279,21.1,21.1,43,0.00,CLR,,0.00,WeatherDisplay:10.37,2013-03-20 18:04:00,
2013-03-20 13:09:00,26.1,6.1,30.10,West,274,14.2,20.7,42,0.00,CLR,,0.00,WeatherDisplay:10.37,2013-03-20 18:09:00,
2013-03-20 13:14:00,25.8,6.3,30.10,SW,225,21.6,23.0,43,0.00,SCT,,0.00,WeatherDisplay:10.37,2013-03-20 18:14:00,
2013-03-20 13:19:00,25.6,6.2,30.09,WNW,303,24.3,24.3,43,0.00,SCT,,0.00,WeatherDisplay:10.37,2013-03-20 18:19:00,
2013-03-20 13:24:00,26.1,7.1,30.09,WNW,289,8.9,18.4,44,0.00,SCT,,0.00,WeatherDisplay:10.37,2013-03-20 18:24:00,
2013-03-20 13:29:00,26.6,6.0,30.08,WNW,294,19.2,19.2,41,0.00,SCT,,0.00,WeatherDisplay:10.37,2013-03-20 18:29:00,
2013-03-20 13:34:00,26.9,6.3,30.08,SW,236,21.7,21.7,41,0.00,SCT,,0.00,WeatherDisplay:10.37,2013-03-20 18:34:00,
2013-03-20 13:39:00,26.6,6.0,30.08,WNW,290,13.8,18.4,41,0.00,SCT,,0.00,WeatherDisplay:10.37,2013-03-20 18:39:00,
2013-03-20 13:44:00,27.3,6.7,30.08,West,259,14.3,18.0,41,0.00,SCT,,0.00,WeatherDisplay:10.37,2013-03-20 18:44:00,
2013-03-20 13:49:00,26.7,6.1,30.08,West,270,17.6,25.3,41,0.00,SCT,,0.00,WeatherDisplay:10.37,2013-03-20 18:49:00,
2013-03-20 13:54:00,26.4,5.8,30.08,West,262,21.7,25.5,41,0.00,CLR,,0.00,WeatherDisplay:10.37,2013-03-20 18:54:00,
2013-03-20 14:00:00,26.3,5.8,30.08,SSE,161,7.4,15.0,41,0.00,CLR,,0.00,WeatherDisplay:10.37,2013-03-20 19:00:00,
2013-03-20 14:05:00,26.6,6.0,30.08,WNW,303,9.6,21.0,41,0.00,CLR,,0.00,WeatherDisplay:10.37,2013-03-20 19:05:00,
2013-03-20 14:10:00,27.5,6.8,30.07,WSW,237,14.2,16.1,41,0.00,CLR,,0.00,WeatherDisplay:10.37,2013-03-20 19:10:00,
2013-03-20 14:15:00,27.6,7.5,30.07,SSW,213,17.7,19.6,42,0.00,SCT,,0.00,WeatherDisplay:10.37,2013-03-20 19:15:00,
2013-03-20 14:20:00,27.2,6.6,30.07,WNW,290,14.3,18.4,41,0.00,SCT,,0.00,WeatherDisplay:10.37,2013-03-20 19:20:00,
2013-03-20 14:25:00,27.0,5.8,30.07,WNW,286,12.0,15.0,40,0.00,SCT,,0.00,WeatherDisplay:10.37,2013-03-20 19:25:00,
2013-03-20 14:30:00,27.3,7.2,30.06,West,262,8.0,24.0,42,0.00,SCT,,0.00,WeatherDisplay:10.37,2013-03-20 19:30:00,
2013-03-20 14:35:00,27.8,9.2,30.06,West,267,13.0,27.0,45,0.00,SCT,,0.00,WeatherDisplay:10.37,2013-03-20 19:35:00,
2013-03-20 14:40:00,27.2,7.1,30.06,West,261,16.0,32.0,42,0.00,SCT,,0.00,WeatherDisplay:10.37,2013-03-20 19:40:00,
2013-03-20 14:45:00,27.2,6.0,30.06,West,264,30.0,33.0,40,0.00,SCT,,0.00,WeatherDisplay:10.37,2013-03-20 19:45:00,
2013-03-20 14:50:00,27.5,6.3,30.06,West,274,17.0,33.0,40,0.00,SCT,,0.00,WeatherDisplay:10.37,2013-03-20 19:50:00,
2013-03-20 14:55:00,28.0,6.2,30.05,West,280,20.0,32.0,39,0.00,BKN,,0.00,WeatherDisplay:10.37,2013-03-20 19:55:00,
2013-03-20 15:00:00,28.2,7.5,30.05,West,281,16.0,27.0,41,0.00,BKN,,0.00,WeatherDisplay:10.37,2013-03-20 20:00:00,
2013-03-20 15:05:00,28.4,8.2,30.05,West,271,10.0,25.0,42,0.00,BKN,,0.00,WeatherDisplay:10.37,2013-03-20 20:05:00,
2013-03-20 15:10:00,28.5,6.6,30.05,West,259,20.0,27.0,39,0.00,BKN,,0.00,WeatherDisplay:10.37,2013-03-20 20:10:00,
2013-03-20 15:15:00,28.4,6.6,30.05,SW,227,16.7,19.6,39,0.00,SCT,,0.00,WeatherDisplay:10.37,2013-03-20 20:15:00,
2013-03-20 15:20:00,28.2,6.9,30.05,WSW,254,21.0,29.0,40,0.00,SCT,,0.00,WeatherDisplay:10.37,2013-03-20 20:20:00,
2013-03-20 15:25:00,28.8,7.4,30.05,West,262,22.0,22.0,40,0.00,SCT,,0.00,WeatherDisplay:10.37,2013-03-20 20:25:00,
2013-03-20 15:30:00,27.9,5.5,30.05,NW,310,22.9,25.3,38,0.00,SCT,,0.00,WeatherDisplay:10.37,2013-03-20 20:30:00,
2013-03-20 15:35:00,27.6,5.8,30.05,West,271,22.0,29.0,39,0.00,SCT,,0.00,WeatherDisplay:10.37,2013-03-20 20:35:00,
2013-03-20 15:40:00,27.9,5.0,30.05,West,273,22.0,24.0,37,0.00,SCT,,0.00,WeatherDisplay:10.37,2013-03-20 20:40:00,
2013-03-20 15:45:00,27.6,5.3,30.05,West,273,13.0,25.0,38,0.00,SCT,,0.00,WeatherDisplay:10.37,2013-03-20 20:45:00,
2013-03-20 15:50:00,27.5,5.7,30.05,SW,225,11.4,19.5,39,0.00,SCT,,0.00,WeatherDisplay:10.37,2013-03-20 20:50:00,
2013-03-20 15:55:00,27.5,5.7,30.05,WSW,239,20.3,26.5,39,0.00,SCT,,0.00,WeatherDisplay:10.37,2013-03-20 20:55:00,
2013-03-20 16:00:00,27.9,5.0,30.05,WSW,246,11.3,15.0,37,0.00,SCT,,0.00,WeatherDisplay:10.37,2013-03-20 21:00:00,
2013-03-20 16:05:00,28.2,5.2,30.05,West,269,17.0,29.0,37,0.00,SCT,,0.00,WeatherDisplay:10.37,2013-03-20 21:05:00,
2013-03-20 16:10:00,28.1,5.7,30.05,West,263,17.0,29.0,38,0.00,SCT,,0.00,WeatherDisplay:10.37,2013-03-20 21:10:00,
2013-03-20 16:15:00,27.8,5.4,30.05,West,269,10.0,29.0,38,0.00,BKN,,0.00,WeatherDisplay:10.37,2013-03-20 21:15:00,
2013-03-20 16:20:00,28.4,6.0,30.05,West,263,13.5,13.5,38,0.00,BKN,,0.00,WeatherDisplay:10.37,2013-03-20 21:20:00,
2013-03-20 16:25:00,28.4,5.4,30.04,West,271,11.7,15.0,37,0.00,BKN,,0.00,WeatherDisplay:10.37,2013-03-20 21:25:00,
2013-03-20 16:30:00,28.5,6.1,30.04,SW,235,15.0,20.7,38,0.00,BKN,,0.00,WeatherDisplay:10.37,2013-03-20 21:30:00,
2013-03-20 16:35:00,28.4,4.8,30.04,West,268,16.0,25.0,36,0.00,SCT,,0.00,WeatherDisplay:10.37,2013-03-20 21:35:00,
2013-03-20 16:40:00,27.9,5.0,30.04,WSW,251,7.2,15.0,37,0.00,SCT,,0.00,WeatherDisplay:10.37,2013-03-20 21:40:00,
2013-03-20 16:45:00,28.1,6.3,30.04,West,277,9.3,10.4,39,0.00,SCT,,0.00,WeatherDisplay:10.37,2013-03-20 21:45:00,
2013-03-20 16:50:00,27.9,5.5,30.04,West,273,18.2,19.6,38,0.00,SCT,,0.00,WeatherDisplay:10.37,2013-03-20 21:50:00,
2013-03-20 16:55:00,27.9,6.1,30.04,West,271,15.9,20.7,39,0.00,SCT,,0.00,WeatherDisplay:10.37,2013-03-20 21:55:00,
2013-03-20 17:00:00,28.1,5.7,30.03,WSW,250,14.0,23.0,38,0.00,SCT,,0.00,WeatherDisplay:10.37,2013-03-20 22:00:00,
2013-03-20 17:05:00,28.4,6.6,30.04,West,281,11.8,19.6,39,0.00,SCT,,0.00,WeatherDisplay:10.37,2013-03-20 22:05:00,
2013-03-20 17:10:00,28.4,6.0,30.03,West,260,12.5,24.2,38,0.00,SCT,,0.00,WeatherDisplay:10.37,2013-03-20 22:10:00,
2013-03-20 17:15:00,28.4,6.6,30.04,WSW,251,10.7,11.5,39,0.00,SCT,,0.00,WeatherDisplay:10.37,2013-03-20 22:15:00,
2013-03-20 17:20:00,28.4,6.6,30.04,West,263,8.0,24.0,39,0.00,SCT,,0.00,WeatherDisplay:10.37,2013-03-20 22:20:00,
2013-03-20 17:25:00,28.2,6.9,30.04,West,273,10.9,11.5,40,0.00,SCT,,0.00,WeatherDisplay:10.37,2013-03-20 22:25:00,
2013-03-20 17:30:00,28.2,6.4,30.04,West,280,15.5,18.4,39,0.00,SCT,,0.00,WeatherDisplay:10.37,2013-03-20 22:30:00,
2013-03-20 17:35:00,28.2,5.8,30.04,West,260,15.0,21.0,38,0.00,SCT,,0.00,WeatherDisplay:10.37,2013-03-20 22:35:00,
2013-03-20 17:40:00,27.9,6.1,30.04,NW,317,6.2,9.2,39,0.00,SCT,,0.00,WeatherDisplay:10.37,2013-03-20 22:40:00,
2013-03-20 17:45:00,28.1,6.8,30.04,West,273,15.6,15.6,40,0.00,SCT,,0.00,WeatherDisplay:10.37,2013-03-20 22:45:00,
2013-03-20 17:50:00,28.1,6.3,30.04,WSW,248,23.4,31.1,39,0.00,SCT,,0.00,WeatherDisplay:10.37,2013-03-20 22:50:00,
2013-03-20 17:55:00,27.8,6.0,30.04,West,269,10.0,39.0,39,0.00,BKN,,0.00,WeatherDisplay:10.37,2013-03-20 22:55:00,
2013-03-20 18:00:00,27.6,5.8,30.04,West,271,14.0,18.0,39,0.00,BKN,,0.00,WeatherDisplay:10.37,2013-03-20 23:00:00,
2013-03-20 18:05:00,27.6,5.8,30.04,West,277,17.0,23.0,39,0.00,BKN,,0.00,WeatherDisplay:10.37,2013-03-20 23:05:00,
2013-03-20 18:10:00,27.6,6.9,30.05,West,266,16.0,18.0,41,0.00,BKN,,0.00,WeatherDisplay:10.37,2013-03-20 23:10:00,
2013-03-20 18:15:00,27.5,7.4,30.05,West,269,8.9,10.4,42,0.00,BKN,,0.00,WeatherDisplay:10.37,2013-03-20 23:15:00,
2013-03-20 18:20:00,27.5,7.4,30.04,West,275,13.9,29.9,42,0.00,BKN,,0.00,WeatherDisplay:10.37,2013-03-20 23:20:00,
2013-03-20 18:25:00,27.3,6.7,30.05,West,271,20.0,27.0,41,0.00,BKN,,0.00,WeatherDisplay:10.37,2013-03-20 23:25:00,
2013-03-20 18:30:00,27.2,6.6,30.05,West,273,10.0,24.0,41,0.00,BKN,,0.00,WeatherDisplay:10.37,2013-03-20 23:30:00,
2013-03-20 18:35:00,27.2,7.1,30.05,WSW,257,6.7,9.2,42,0.00,SCT,,0.00,WeatherDisplay:10.37,2013-03-20 23:35:00,
2013-03-20 18:40:00,27.2,7.1,30.05,West,264,10.0,23.0,42,0.00,SCT,,0.00,WeatherDisplay:10.37,2013-03-20 23:40:00,
2013-03-20 18:45:00,26.9,6.8,30.05,West,275,14.7,15.0,42,0.00,SCT,,0.00,WeatherDisplay:10.37,2013-03-20 23:45:00,
2013-03-20 18:50:00,26.7,7.7,30.05,SW,226,7.8,7.8,44,0.00,SCT,,0.00,WeatherDisplay:10.37,2013-03-20 23:50:00,
2013-03-20 18:55:00,26.7,8.2,30.05,West,266,12.0,15.0,45,0.00,BKN,,0.00,WeatherDisplay:10.37,2013-03-20 23:55:00,
2013-03-20 19:00:00,26.6,7.6,30.05,West,272,15.0,17.0,44,0.00,BKN,,0.00,WeatherDisplay:10.37,2013-03-21 00:00:00,
2013-03-20 19:05:00,26.5,8.0,30.05,West,275,14.0,17.0,45,0.00,BKN,,0.00,WeatherDisplay:10.37,2013-03-21 00:05:00,
2013-03-20 19:10:00,26.3,7.8,30.05,West,267,11.2,11.2,45,0.00,BKN,,0.00,WeatherDisplay:10.37,2013-03-21 00:10:00,
2013-03-20 19:15:00,26.1,7.6,30.05,WSW,256,12.8,20.7,45,0.00,SCT,,0.00,WeatherDisplay:10.37,2013-03-21 00:15:00,
2013-03-20 19:20:00,26.0,7.5,30.05,WNW,293,8.7,15.0,45,0.00,SCT,,0.00,WeatherDisplay:10.37,2013-03-21 00:20:00,
2013-03-20 19:25:00,25.8,7.4,30.05,WNW,284,10.0,17.0,45,0.00,SCT,,0.00,WeatherDisplay:10.37,2013-03-21 00:25:00,
2013-03-20 19:30:00,25.7,7.7,30.05,WSW,256,12.5,19.6,46,0.00,SCT,,0.00,WeatherDisplay:10.37,2013-03-21 00:30:00,
2013-03-20 19:35:00,25.6,8.6,30.05,WNW,290,8.0,15.0,48,0.00,SCT,,0.00,WeatherDisplay:10.37,2013-03-21 00:35:00,
2013-03-20 19:40:00,25.3,8.8,30.05,WNW,298,8.8,11.5,49,0.00,SCT,,0.00,WeatherDisplay:10.37,2013-03-21 00:40:00,
2013-03-20 19:45:00,25.3,8.3,30.05,WNW,293,12.6,12.6,48,0.00,SCT,,0.00,WeatherDisplay:10.37,2013-03-21 00:45:00,
2013-03-20 19:50:00,25.1,7.7,30.05,WSW,242,6.5,10.5,47,0.00,SCT,,0.00,WeatherDisplay:10.37,2013-03-21 00:50:00,
2013-03-20 19:55:00,25.1,8.1,30.05,West,273,6.0,15.0,48,0.00,SCT,,0.00,WeatherDisplay:10.37,2013-03-21 00:55:00,
2013-03-20 20:00:00,25.1,8.6,30.05,West,275,9.0,18.0,49,0.00,SCT,,0.00,WeatherDisplay:10.37,2013-03-21 01:00:00,
2013-03-20 20:05:00,24.8,8.3,30.05,West,279,12.0,15.0,49,0.00,SCT,,0.00,WeatherDisplay:10.37,2013-03-21 01:05:00,
2013-03-20 20:10:00,24.8,8.3,30.06,NNW,329,9.8,11.5,49,0.00,SCT,,0.00,WeatherDisplay:10.37,2013-03-21 01:10:00,
2013-03-20 20:15:00,24.7,8.2,30.05,WNW,295,11.0,16.1,49,0.00,SCT,,0.00,WeatherDisplay:10.37,2013-03-21 01:15:00,
2013-03-20 20:20:00,24.5,8.5,30.06,WNW,286,6.3,10.4,50,0.00,SCT,,0.00,WeatherDisplay:10.37,2013-03-21 01:20:00,
2013-03-20 20:25:00,24.5,8.9,30.06,West,279,15.3,16.1,51,0.00,SCT,,0.00,WeatherDisplay:10.37,2013-03-21 01:25:00,
2013-03-20 20:30:00,24.4,9.3,30.06,West,278,5.7,13.8,52,0.00,SCT,,0.00,WeatherDisplay:10.37,2013-03-21 01:30:00,
2013-03-20 20:35:00,24.4,10.1,30.06,WNW,291,15.2,18.4,54,0.00,SCT,,0.00,WeatherDisplay:10.37,2013-03-21 01:35:00,
2013-03-20 20:40:00,24.2,10.7,30.06,WNW,290,22.1,24.2,56,0.00,SCT,,0.00,WeatherDisplay:10.37,2013-03-21 01:40:00,
2013-03-20 20:45:00,24.1,11.0,30.06,WNW,288,6.0,20.0,57,0.00,SCT,,0.00,WeatherDisplay:10.37,2013-03-21 01:45:00,
2013-03-20 20:50:00,23.9,11.3,30.06,NW,313,8.5,10.4,58,0.00,SCT,,0.00,WeatherDisplay:10.37,2013-03-21 01:50:00,
2013-03-20 20:55:00,23.8,11.2,30.06,WNW,291,8.5,13.8,58,0.00,BKN,,0.00,WeatherDisplay:10.37,2013-03-21 01:55:00,
2013-03-20 21:00:00,23.6,11.0,30.06,NNW,327,10.5,10.5,58,0.00,BKN,,0.00,WeatherDisplay:10.37,2013-03-21 02:00:00,
2013-03-20 21:05:00,23.6,11.0,30.06,West,280,1.3,1.5,58,0.00,BKN,,0.00,WeatherDisplay:10.37,2013-03-21 02:05:00,
2013-03-20 21:10:00,23.6,11.0,30.06,West,259,4.4,5.8,58,0.00,BKN,,0.00,WeatherDisplay:10.37,2013-03-21 02:10:00,
2013-03-20 21:15:00,23.5,10.1,30.06,WNW,287,5.4,8.1,56,0.00,BKN,,0.00,WeatherDisplay:10.37,2013-03-21 02:15:00,
2013-03-20 21:20:00,23.5,10.5,30.06,WSW,256,8.6,8.6,57,0.00,BKN,,0.00,WeatherDisplay:10.37,2013-03-21 02:20:00,
2013-03-20 21:25:00,23.5,11.6,30.06,West,276,7.6,8.1,60,0.00,BKN,,0.00,WeatherDisplay:10.37,2013-03-21 02:25:00,
2013-03-20 21:30:00,23.3,10.3,30.06,WNW,301,6.4,8.1,57,0.00,BKN,,0.00,WeatherDisplay:10.37,2013-03-21 02:30:00,
2013-03-20 21:35:00,23.2,9.8,30.06,WNW,294,8.1,15.0,56,0.00,OVC,,0.00,WeatherDisplay:10.37,2013-03-21 02:35:00,
2013-03-20 21:40:00,23.2,9.8,30.06,NW,318,11.4,11.4,56,0.00,OVC,,0.00,WeatherDisplay:10.37,2013-03-21 02:40:00,
2013-03-20 21:45:00,23.0,9.6,30.06,West,261,7.8,10.4,56,0.00,OVC,,0.00,WeatherDisplay:10.37,2013-03-21 02:45:00,
2013-03-20 21:50:00,23.0,9.6,30.06,West,279,4.2,10.4,56,0.00,OVC,,0.00,WeatherDisplay:10.37,2013-03-21 02:50:00,
2013-03-20 21:55:00,23.0,9.6,30.06,West,279,5.6,9.2,56,0.00,BKN,,0.00,WeatherDisplay:10.37,2013-03-21 02:55:00,
2013-03-20 22:00:00,22.9,9.9,30.05,West,261,10.7,18.4,57,0.00,BKN,,0.00,WeatherDisplay:10.37,2013-03-21 03:00:00,
2013-03-20 22:05:00,22.9,9.9,30.05,West,278,9.2,10.4,57,0.00,BKN,,0.00,WeatherDisplay:10.37,2013-03-21 03:05:00,
2013-03-20 22:10:00,22.9,10.3,30.05,WNW,298,7.0,10.4,58,0.00,BKN,,0.00,WeatherDisplay:10.37,2013-03-21 03:10:00,
2013-03-20 22:15:00,22.7,10.1,30.05,West,267,5.3,9.2,58,0.00,BKN,,0.00,WeatherDisplay:10.37,2013-03-21 03:15:00,
2013-03-20 22:20:00,22.5,9.9,30.05,West,269,5.5,8.1,58,0.00,BKN,,0.00,WeatherDisplay:10.37,2013-03-21 03:20:00,
2013-03-20 22:25:00,22.5,9.9,30.05,WSW,258,5.3,5.8,58,0.00,BKN,,0.00,WeatherDisplay:10.37,2013-03-21 03:25:00,
2013-03-20 22:30:00,22.4,9.8,30.05,WSW,255,8.3,8.3,58,0.00,BKN,,0.00,WeatherDisplay:10.37,2013-03-21 03:30:00,
2013-03-20 22:35:00,22.4,9.8,30.05,West,271,14.0,16.1,58,0.00,OVC,,0.00,WeatherDisplay:10.37,2013-03-21 03:35:00,
2013-03-20 22:40:00,22.4,9.8,30.04,West,269,10.6,11.5,58,0.00,OVC,,0.00,WeatherDisplay:10.37,2013-03-21 03:40:00,
2013-03-20 22:45:00,22.5,9.9,30.04,West,273,10.0,10.0,58,0.00,OVC,,0.00,WeatherDisplay:10.37,2013-03-21 03:45:00,
2013-03-20 22:50:00,22.4,9.4,30.04,West,275,4.7,5.8,57,0.00,OVC,,0.00,WeatherDisplay:10.37,2013-03-21 03:50:00,
2013-03-20 22:55:00,22.4,9.4,30.04,West,281,9.3,10.5,57,0.00,OVC,,0.00,WeatherDisplay:10.37,2013-03-21 03:55:00,
2013-03-20 23:00:00,22.2,9.3,30.04,WNW,283,8.0,15.0,57,0.00,OVC,,0.00,WeatherDisplay:10.37,2013-03-21 04:00:00,
2013-03-20 23:01:00,22.2,9.3,30.04,WSW,254,24.4,24.4,57,0.00,OVC,,0.00,WeatherDisplay:10.37,2013-03-21 04:01:00,
2013-03-20 23:06:00,22.2,9.3,30.04,WNW,284,4.2,4.6,57,0.00,OVC,,0.00,WeatherDisplay:10.37,2013-03-21 04:06:00,
2013-03-20 23:11:00,22.2,10.0,30.04,WNW,292,6.2,6.2,59,0.00,OVC,,0.00,WeatherDisplay:10.37,2013-03-21 04:11:00,
2013-03-20 23:16:00,22.1,9.9,30.04,West,273,7.8,10.4,59,0.00,OVC,,0.00,WeatherDisplay:10.37,2013-03-21 04:16:00,
2013-03-20 23:21:00,22.1,10.3,30.04,WNW,290,5.6,8.1,60,0.00,OVC,,0.00,WeatherDisplay:10.37,2013-03-21 04:21:00,
2013-03-20 23:26:00,21.9,10.1,30.04,NW,310,7.7,15.0,60,0.00,OVC,,0.00,WeatherDisplay:10.37,2013-03-21 04:26:00,
2013-03-20 23:32:00,21.9,10.5,30.04,West,265,14.7,20.7,61,0.00,OVC,,0.00,WeatherDisplay:10.37,2013-03-21 04:32:00,
2013-03-20 23:37:00,22.1,10.7,30.04,WSW,242,16.4,16.4,61,0.00,OVC,,0.00,WeatherDisplay:10.37,2013-03-21 04:37:00,
2013-03-20 23:42:00,22.1,11.1,30.04,WSW,256,13.8,16.1,62,0.00,OVC,,0.00,WeatherDisplay:10.37,2013-03-21 04:42:00,
2013-03-20 23:47:00,21.9,11.6,30.04,West,272,13.2,18.4,64,0.00,OVC,,0.00,WeatherDisplay:10.37,2013-03-21 04:47:00,
2013-03-20 23:52:00,21.9,13.0,30.04,West,277,7.9,13.8,68,0.00,-SN,,0.00,WeatherDisplay:10.37,2013-03-21 04:52:00,
2013-03-20 23:57:00,21.4,13.5,30.04,NW,308,10.6,18.4,71,0.00,-SN,,0.00,WeatherDisplay:10.37,2013-03-21 04:57:00,